Time;durP1;ratioP1;P1;durP2;ratioP2;P2;SDS_P1;SDS_P2;PMS_P1;PMS_P2;Temp;Humidity;BMP_temperature;BMP_pressure;BME280_temperature;BME280_humidity;BME280_pressure;Samples;Min_cycle;Max_cycle;Signal;HPM_P1;HPM_P2
2023/06/11 00:02:06;;;;;;;0.10;0.10;;;22.30;99.90;;;;;;5046134;28;20209;-81
2023/06/11 00:04:34;;;;;;;0.10;0.10;;;22.30;99.90;;;;;;5047380;28;20852;-81
2023/06/11 00:07:02;;;;;;;0.10;0.10;;;22.30;99.90;;;;;;5045648;28;21002;-81
2023/06/11 00:09:28;;;;;;;0.10;0.10;;;22.30;99.90;;;;;;5046052;28;20213;-81
2023/06/11 00:11:54;;;;;;;0.10;0.10;;;22.40;99.90;;;;;;5047369;28;20174;-81
2023/06/11 00:14:22;;;;;;;0.10;0.10;;;22.40;99.90;;;;;;5047407;28;20182;-81
2023/06/11 00:16:47;;;;;;;0.10;0.10;;;22.30;99.90;;;;;;5046019;28;20204;-81
2023/06/11 00:19:13;;;;;;;0.10;0.10;;;22.30;99.90;;;;;;5046324;28;20186;-81
2023/06/11 00:21:43;;;;;;;0.10;0.10;;;22.30;99.90;;;;;;5045388;28;20371;-81
2023/06/11 00:24:15;;;;;;;0.10;0.10;;;22.30;99.90;;;;;;5045632;28;20594;-81
2023/06/11 00:26:41;;;;;;;0.20;0.20;;;22.30;99.90;;;;;;5045048;28;20205;-81
2023/06/11 00:29:10;;;;;;;0.10;0.10;;;22.20;99.90;;;;;;5047264;28;20204;-81
2023/06/11 00:31:36;;;;;;;0.17;0.17;;;22.20;99.90;;;;;;5046547;28;20783;-81
2023/06/11 00:34:02;;;;;;;0.10;0.10;;;22.10;99.90;;;;;;5045855;28;20178;-81
2023/06/11 00:36:27;;;;;;;0.10;0.10;;;22.10;99.90;;;;;;5046670;28;20212;-81
2023/06/11 00:38:53;;;;;;;0.10;0.10;;;22.10;99.90;;;;;;5046526;28;20205;-81
2023/06/11 00:41:20;;;;;;;0.10;0.10;;;22.10;99.90;;;;;;5044914;28;20204;-81
2023/06/11 00:43:48;;;;;;;0.10;0.10;;;22.10;99.90;;;;;;5045461;28;20201;-81
2023/06/11 00:46:16;;;;;;;0.10;0.10;;;22.10;99.90;;;;;;5046161;28;20178;-81
2023/06/11 00:48:41;;;;;;;2.30;2.10;;;22.00;99.90;;;;;;5045466;28;20647;-81
2023/06/11 00:51:10;;;;;;;0.10;0.10;;;22.00;99.90;;;;;;5046633;28;20208;-81
2023/06/11 00:53:35;;;;;;;0.10;0.10;;;22.00;99.90;;;;;;5045050;28;20189;-81
2023/06/11 00:56:01;;;;;;;0.10;0.10;;;21.90;99.90;;;;;;5045451;28;20228;-81
2023/06/11 00:58:27;;;;;;;0.10;0.10;;;21.90;99.90;;;;;;5045925;28;20263;-81
2023/06/11 01:00:57;;;;;;;0.10;0.10;;;21.80;99.90;;;;;;5043930;28;20182;-81
2023/06/11 01:03:26;;;;;;;0.10;0.10;;;21.80;99.90;;;;;;5046721;28;20224;-81
2023/06/11 01:06:04;;;;;;;0.10;0.10;;;21.70;99.90;;;;;;5044926;28;21174;-81
2023/06/11 01:08:40;;;;;;;0.10;0.10;;;21.70;99.90;;;;;;5046630;28;20197;-81
2023/06/11 01:11:13;;;;;;;0.10;0.10;;;21.60;99.90;;;;;;5045452;28;21234;-81
2023/06/11 01:13:39;;;;;;;0.10;0.10;;;21.60;99.90;;;;;;5045243;28;20253;-81
2023/06/11 01:16:28;;;;;;;0.10;0.10;;;21.50;99.90;;;;;;5044789;28;20190;-81
2023/06/11 01:19:12;;;;;;;0.10;0.10;;;21.50;99.90;;;;;;5052346;28;20201;-81
2023/06/11 01:21:47;;;;;;;0.10;0.10;;;21.50;99.90;;;;;;5044812;28;20235;-81
2023/06/11 01:24:26;;;;;;;0.10;0.10;;;21.40;99.90;;;;;;5046112;28;20188;-81
2023/06/11 01:27:17;;;;;;;0.10;0.10;;;21.40;99.90;;;;;;5044250;28;20198;-81
2023/06/11 01:29:45;;;;;;;0.10;0.10;;;21.30;99.90;;;;;;5044995;28;20197;-81
2023/06/11 01:32:12;;;;;;;0.10;0.10;;;21.30;99.90;;;;;;5045756;28;20257;-81
2023/06/11 01:34:41;;;;;;;0.10;0.10;;;21.20;99.90;;;;;;5045658;28;20193;-81
2023/06/11 01:37:09;;;;;;;0.83;0.83;;;21.10;99.90;;;;;;5044155;28;20201;-81
2023/06/11 01:39:34;;;;;;;0.10;0.10;;;21.10;99.90;;;;;;5044600;28;20185;-81
2023/06/11 01:42:00;;;;;;;0.20;0.20;;;21.00;99.90;;;;;;5044304;28;20248;-81
2023/06/11 01:44:26;;;;;;;0.10;0.10;;;21.00;99.90;;;;;;5043729;28;20204;-81
2023/06/11 01:46:52;;;;;;;0.10;0.10;;;21.00;99.90;;;;;;5043659;28;20275;-81
2023/06/11 01:49:18;;;;;;;0.10;0.10;;;20.90;99.90;;;;;;5043462;28;20222;-81
2023/06/11 01:51:43;;;;;;;0.20;0.20;;;20.90;99.90;;;;;;5043463;28;20193;-81
2023/06/11 01:54:09;;;;;;;0.10;0.10;;;20.90;99.90;;;;;;5044189;28;20185;-81
2023/06/11 01:56:35;;;;;;;0.10;0.10;;;20.80;99.90;;;;;;5044140;28;20210;-81
2023/06/11 01:59:00;;;;;;;0.10;0.10;;;20.80;99.90;;;;;;5045598;28;20247;-81
2023/06/11 02:01:28;;;;;;;0.10;0.10;;;20.80;99.90;;;;;;5045305;28;20211;-81
2023/06/11 02:03:54;;;;;;;0.10;0.10;;;20.70;99.90;;;;;;5052140;28;20659;-81
2023/06/11 02:06:20;;;;;;;0.10;0.10;;;20.70;99.90;;;;;;5044129;28;20196;-81
2023/06/11 02:08:45;;;;;;;0.10;0.10;;;20.70;99.90;;;;;;5045363;28;20748;-81
2023/06/11 02:11:11;;;;;;;0.10;0.10;;;20.60;99.90;;;;;;5045320;28;20681;-81
2023/06/11 02:13:37;;;;;;;0.43;0.43;;;20.60;99.90;;;;;;5044271;28;20193;-81
2023/06/11 02:16:02;;;;;;;0.10;0.10;;;20.60;99.90;;;;;;5044136;28;20289;-81
2023/06/11 02:18:28;;;;;;;0.10;0.10;;;20.50;99.90;;;;;;5045385;28;20729;-81
2023/06/11 02:20:53;;;;;;;0.10;0.10;;;20.60;99.90;;;;;;5044993;28;20216;-81
2023/06/11 02:23:19;;;;;;;0.10;0.10;;;20.60;99.90;;;;;;5045273;28;20348;-81
2023/06/11 02:25:44;;;;;;;0.10;0.10;;;20.60;99.90;;;;;;5045327;28;20182;-81
2023/06/11 02:28:10;;;;;;;0.50;0.50;;;20.60;99.90;;;;;;5051261;28;20205;-81
2023/06/11 02:30:36;;;;;;;0.10;0.10;;;20.60;99.90;;;;;;5051972;28;20193;-81
2023/06/11 02:33:01;;;;;;;0.10;0.10;;;20.60;99.90;;;;;;5043287;28;20181;-81
2023/06/11 02:35:27;;;;;;;0.40;0.40;;;20.50;99.90;;;;;;5044105;28;20232;-81
2023/06/11 02:37:52;;;;;;;0.10;0.10;;;20.50;99.90;;;;;;5043767;28;20271;-81
2023/06/11 02:40:18;;;;;;;0.10;0.10;;;20.40;99.90;;;;;;5045359;28;20235;-81
2023/06/11 02:42:44;;;;;;;0.10;0.10;;;20.50;99.90;;;;;;5043605;28;20189;-81
2023/06/11 02:45:10;;;;;;;0.10;0.10;;;20.40;99.90;;;;;;5043499;28;20235;-81
2023/06/11 02:47:35;;;;;;;0.10;0.10;;;20.40;99.90;;;;;;5044538;28;21253;-81
2023/06/11 02:50:01;;;;;;;0.10;0.10;;;20.40;99.90;;;;;;5043938;28;20243;-81
2023/06/11 02:52:26;;;;;;;0.10;0.10;;;20.40;99.90;;;;;;5045128;28;20186;-81
2023/06/11 02:54:52;;;;;;;0.10;0.10;;;20.40;99.90;;;;;;5043725;28;20209;-81
2023/06/11 02:57:17;;;;;;;0.10;0.10;;;20.30;99.90;;;;;;5043738;28;20206;-81
2023/06/11 02:59:43;;;;;;;0.10;0.10;;;20.30;99.90;;;;;;5043854;28;20169;-81
2023/06/11 03:02:08;;;;;;;0.10;0.10;;;20.30;99.90;;;;;;5043758;28;20551;-81
2023/06/11 03:04:34;;;;;;;0.10;0.10;;;20.30;99.90;;;;;;5047316;28;20225;-81
2023/06/11 03:06:59;;;;;;;0.10;0.10;;;20.20;99.90;;;;;;5049020;28;20286;-81
2023/06/11 03:09:25;;;;;;;0.10;0.10;;;20.20;99.90;;;;;;5047385;28;20178;-81
2023/06/11 03:11:51;;;;;;;0.10;0.10;;;20.10;99.90;;;;;;5048627;28;20239;-81
2023/06/11 03:14:17;;;;;;;0.10;0.10;;;20.10;99.90;;;;;;5048948;28;20185;-81
2023/06/11 03:16:42;;;;;;;0.10;0.10;;;20.10;99.90;;;;;;5047431;28;20236;-81
2023/06/11 03:19:08;;;;;;;0.10;0.10;;;20.10;99.90;;;;;;5047548;28;20563;-81
2023/06/11 03:21:36;;;;;;;0.10;0.10;;;20.10;99.90;;;;;;5048185;28;20510;-81
2023/06/11 03:24:02;;;;;;;0.10;0.10;;;20.10;99.90;;;;;;5048718;28;20553;-81
2023/06/11 03:26:28;;;;;;;0.37;0.37;;;20.10;99.90;;;;;;5047256;28;20205;-81
2023/06/11 03:28:53;;;;;;;0.10;0.10;;;20.10;99.90;;;;;;5046172;28;20634;-81
2023/06/11 03:31:19;;;;;;;0.10;0.10;;;20.10;99.90;;;;;;5046840;28;21199;-81
2023/06/11 03:33:44;;;;;;;0.20;0.20;;;20.10;99.90;;;;;;5046700;28;20250;-81
2023/06/11 03:36:10;;;;;;;0.10;0.10;;;20.10;99.90;;;;;;5047548;28;20620;-80
2023/06/11 03:38:35;;;;;;;0.10;0.10;;;20.40;99.90;;;;;;5047134;28;20198;-81
2023/06/11 03:41:01;;;;;;;0.10;0.10;;;20.80;99.90;;;;;;5046578;28;20182;-81
2023/06/11 03:43:26;;;;;;;0.10;0.10;;;21.00;99.90;;;;;;5046839;28;20181;-81
2023/06/11 03:45:52;;;;;;;0.10;0.10;;;21.10;99.90;;;;;;5046749;28;20654;-81
2023/06/11 03:48:18;;;;;;;0.10;0.10;;;21.40;99.90;;;;;;5046314;28;20206;-81
2023/06/11 03:50:43;;;;;;;0.10;0.10;;;21.90;99.90;;;;;;5048418;28;20192;-81
2023/06/11 03:53:08;;;;;;;0.10;0.10;;;22.20;99.90;;;;;;5046502;28;20188;-81
2023/06/11 03:55:34;;;;;;;0.10;0.10;;;22.20;99.90;;;;;;5048275;28;20192;-81
2023/06/11 03:57:59;;;;;;;0.10;0.10;;;23.20;99.90;;;;;;5046125;28;20287;-81
2023/06/11 04:00:27;;;;;;;0.10;0.10;;;23.00;99.90;;;;;;5047864;28;20303;-81
2023/06/11 04:02:54;;;;;;;0.10;0.10;;;23.20;99.90;;;;;;5047557;28;20174;-81
2023/06/11 04:05:19;;;;;;;0.10;0.10;;;23.30;99.90;;;;;;5046373;28;20197;-81
2023/06/11 04:07:45;;;;;;;0.10;0.10;;;23.20;99.90;;;;;;5046454;28;20201;-81
2023/06/11 04:10:11;;;;;;;0.10;0.10;;;23.40;99.90;;;;;;5047677;28;20242;-81
2023/06/11 04:12:36;;;;;;;0.10;0.10;;;24.30;99.90;;;;;;5045945;28;20726;-81
2023/06/11 04:15:02;;;;;;;0.10;0.10;;;23.80;99.90;;;;;;5046759;28;20197;-81
2023/06/11 04:17:27;;;;;;;0.10;0.10;;;23.90;99.90;;;;;;5048676;28;20324;-81
2023/06/11 04:19:53;;;;;;;0.10;0.10;;;24.10;99.90;;;;;;5049058;28;20561;-80
2023/06/11 04:22:18;;;;;;;0.10;0.10;;;24.30;99.90;;;;;;5048999;28;20560;-81
2023/06/11 04:24:45;;;;;;;0.10;0.10;;;23.80;99.90;;;;;;5047878;28;20185;-81
2023/06/11 04:27:11;;;;;;;0.10;0.10;;;23.00;99.90;;;;;;5047154;28;20205;-81
2023/06/11 04:29:36;;;;;;;0.10;0.10;;;22.80;99.90;;;;;;5046998;28;20186;-81
2023/06/11 04:32:03;;;;;;;0.10;0.10;;;22.50;99.90;;;;;;5046838;28;20220;-81
2023/06/11 04:34:29;;;;;;;0.10;0.10;;;22.30;99.90;;;;;;5046750;28;20959;-81
2023/06/11 04:36:58;;;;;;;0.10;0.10;;;22.10;99.90;;;;;;5047884;28;20271;-81
2023/06/11 04:39:24;;;;;;;0.10;0.10;;;21.80;99.90;;;;;;5053624;28;20247;-81
2023/06/11 04:41:51;;;;;;;0.10;0.10;;;21.90;99.90;;;;;;5046235;28;20651;-81
2023/06/11 04:44:20;;;;;;;0.10;0.10;;;21.60;99.90;;;;;;5045700;28;20188;-81
2023/06/11 04:46:47;;;;;;;0.10;0.10;;;21.80;99.90;;;;;;5045904;28;20292;-81
2023/06/11 04:49:14;;;;;;;0.10;0.10;;;21.60;99.90;;;;;;5047439;28;20166;-81
2023/06/11 04:51:40;;;;;;;0.10;0.10;;;21.60;99.90;;;;;;5045959;28;20173;-81
2023/06/11 04:54:07;;;;;;;0.10;0.10;;;21.50;99.90;;;;;;5045150;28;20193;-81
2023/06/11 04:56:36;;;;;;;0.10;0.10;;;21.70;99.90;;;;;;5047114;28;20284;-81
2023/06/11 04:59:01;;;;;;;0.10;0.10;;;21.80;99.90;;;;;;5045171;28;20212;-81
2023/06/11 05:01:30;;;;;;;0.10;0.10;;;21.50;99.90;;;;;;5045165;28;20688;-81
2023/06/11 05:03:56;;;;;;;0.10;0.10;;;21.40;99.90;;;;;;5046551;28;20181;-81
2023/06/11 05:06:23;;;;;;;0.10;0.10;;;21.40;99.90;;;;;;5046112;28;20859;-81
2023/06/11 05:08:50;;;;;;;0.10;0.10;;;21.50;99.90;;;;;;5044579;28;20255;-81
2023/06/11 05:11:16;;;;;;;0.10;0.10;;;21.60;99.90;;;;;;5044829;28;20193;-81
2023/06/11 05:13:42;;;;;;;0.10;0.10;;;21.70;99.90;;;;;;5045161;28;20192;-81
2023/06/11 05:16:08;;;;;;;0.10;0.10;;;21.50;99.90;;;;;;5044399;28;20655;-81
2023/06/11 05:18:35;;;;;;;0.10;0.10;;;21.60;99.90;;;;;;5046328;28;20408;-81
2023/06/11 05:21:00;;;;;;;0.10;0.10;;;21.60;99.90;;;;;;5046382;28;20178;-80
2023/06/11 05:23:31;;;;;;;0.10;0.10;;;21.80;99.90;;;;;;5046373;28;20583;-81
2023/06/11 05:26:11;;;;;;;0.10;0.10;;;21.90;99.90;;;;;;5044781;28;20297;-81
2023/06/11 05:28:37;;;;;;;0.10;0.10;;;21.60;99.90;;;;;;5046426;28;20181;-81
2023/06/11 05:31:03;;;;;;;0.10;0.10;;;21.50;99.90;;;;;;5046290;28;20200;-80
2023/06/11 05:33:30;;;;;;;0.10;0.10;;;21.80;99.90;;;;;;5046023;28;20182;-81
2023/06/11 05:35:56;;;;;;;1.43;0.70;;;21.70;99.90;;;;;;5047093;28;20578;-81
2023/06/11 05:38:21;;;;;;;0.10;0.10;;;21.90;99.90;;;;;;5045611;28;20328;-81
2023/06/11 05:40:47;;;;;;;0.10;0.10;;;21.80;99.90;;;;;;5045515;28;20560;-81
2023/06/11 05:43:13;;;;;;;0.10;0.10;;;21.90;99.90;;;;;;5045625;28;20182;-81
2023/06/11 05:45:49;;;;;;;0.10;0.10;;;22.10;99.90;;;;;;5045759;28;20264;-81
2023/06/11 05:48:15;;;;;;;0.20;0.20;;;22.30;99.90;;;;;;5044683;28;20302;-81
2023/06/11 05:50:40;;;;;;;0.10;0.10;;;21.90;99.90;;;;;;5045053;28;20186;-81
2023/06/11 05:53:07;;;;;;;0.10;0.10;;;22.00;99.90;;;;;;5046311;28;20197;-81
2023/06/11 05:55:33;;;;;;;0.10;0.10;;;22.10;99.90;;;;;;5045042;28;20690;-81
2023/06/11 05:57:59;;;;;;;0.10;0.10;;;22.30;99.90;;;;;;5045435;28;20233;-81
2023/06/11 06:00:24;;;;;;;0.10;0.10;;;22.30;99.90;;;;;;5044974;28;20239;-81
2023/06/11 06:02:50;;;;;;;0.10;0.10;;;22.70;99.90;;;;;;5045406;28;20250;-81
2023/06/11 06:05:16;;;;;;;0.10;0.10;;;22.70;99.90;;;;;;5046006;28;20190;-81
2023/06/11 06:07:41;;;;;;;0.10;0.10;;;22.70;99.90;;;;;;5044315;28;20660;-81
2023/06/11 06:10:07;;;;;;;0.10;0.10;;;22.80;99.90;;;;;;5044597;28;20227;-81
2023/06/11 06:12:33;;;;;;;0.10;0.10;;;23.00;99.90;;;;;;5043954;28;20177;-81
2023/06/11 06:14:58;;;;;;;0.10;0.10;;;23.10;99.90;;;;;;5044899;28;20686;-81
2023/06/11 06:17:24;;;;;;;0.10;0.10;;;23.30;99.90;;;;;;5043666;28;20824;-81
2023/06/11 06:19:49;;;;;;;0.10;0.10;;;23.60;99.90;;;;;;5045526;28;20190;-81
2023/06/11 06:22:16;;;;;;;0.10;0.10;;;23.30;99.90;;;;;;5043717;28;20193;-81
2023/06/11 06:24:41;;;;;;;0.10;0.10;;;22.90;99.90;;;;;;5044109;28;20182;-81
2023/06/11 06:27:07;;;;;;;0.10;0.10;;;23.10;99.90;;;;;;5043914;28;20197;-81
2023/06/11 06:29:32;;;;;;;0.10;0.10;;;23.50;99.90;;;;;;5043236;28;20192;-81
2023/06/11 06:31:58;;;;;;;0.10;0.10;;;23.80;99.90;;;;;;5045198;28;20660;-81
2023/06/11 06:34:25;;;;;;;0.10;0.10;;;23.40;99.90;;;;;;5043951;28;20243;-81
2023/06/11 06:36:52;;;;;;;0.10;0.10;;;23.80;99.90;;;;;;5043434;28;20229;-80
2023/06/11 06:39:17;;;;;;;0.10;0.10;;;23.50;99.90;;;;;;5048485;28;20219;-81
2023/06/11 06:41:43;;;;;;;0.10;0.10;;;23.30;99.90;;;;;;5047851;28;20186;-81
2023/06/11 06:44:08;;;;;;;0.10;0.10;;;23.40;99.90;;;;;;5047897;28;20673;-81
2023/06/11 06:46:34;;;;;;;0.10;0.10;;;23.70;99.90;;;;;;5046791;28;20670;-81
2023/06/11 06:48:59;;;;;;;0.10;0.10;;;24.00;99.90;;;;;;5047686;28;20190;-81
2023/06/11 06:51:25;;;;;;;0.20;0.20;;;23.70;99.90;;;;;;5049091;28;20185;-81
2023/06/11 06:53:51;;;;;;;0.10;0.10;;;23.40;99.90;;;;;;5049841;28;20181;-81
2023/06/11 06:56:17;;;;;;;0.23;0.23;;;23.80;99.90;;;;;;5048931;28;20184;-81
2023/06/11 06:58:43;;;;;;;0.10;0.10;;;23.70;99.90;;;;;;5051541;28;20236;-81
2023/06/11 07:01:09;;;;;;;0.10;0.10;;;23.80;99.90;;;;;;5048838;28;20216;-81
2023/06/11 07:03:34;;;;;;;0.10;0.10;;;24.20;99.90;;;;;;5049228;28;20178;-81
2023/06/11 07:06:00;;;;;;;0.10;0.10;;;24.10;99.90;;;;;;5049628;28;20201;-81
2023/06/11 07:08:26;;;;;;;0.10;0.10;;;23.90;99.90;;;;;;5048857;28;20205;-81
2023/06/11 07:10:55;;;;;;;0.10;0.10;;;24.20;99.90;;;;;;5049447;28;20276;-80
2023/06/11 07:13:22;;;;;;;0.10;0.10;;;24.30;99.90;;;;;;5049688;28;20188;-81
2023/06/11 07:15:48;;;;;;;0.20;0.20;;;24.10;99.90;;;;;;5049268;28;20194;-81
2023/06/11 07:18:14;;;;;;;0.10;0.10;;;24.00;99.90;;;;;;5047817;28;20894;-81
2023/06/11 07:20:39;;;;;;;0.10;0.10;;;23.80;99.90;;;;;;5047524;28;20303;-81
2023/06/11 07:23:05;;;;;;;0.10;0.10;;;23.70;99.90;;;;;;5047199;28;21531;-81
2023/06/11 07:25:31;;;;;;;0.10;0.10;;;23.90;99.90;;;;;;5047318;28;20613;-81
2023/06/11 07:28:01;;;;;;;0.10;0.10;;;24.30;99.90;;;;;;5047369;28;20695;-82
2023/06/11 07:30:31;;;;;;;0.10;0.10;;;24.00;99.90;;;;;;5048763;28;20186;-81
2023/06/11 07:32:57;;;;;;;0.10;0.10;;;24.20;99.90;;;;;;5056443;28;20188;-81
2023/06/11 07:35:25;;;;;;;0.10;0.10;;;24.60;99.90;;;;;;5048325;28;20568;-81
2023/06/11 07:37:51;;;;;;;0.10;0.10;;;24.30;99.90;;;;;;5046606;28;20296;-81
2023/06/11 07:40:16;;;;;;;0.10;0.10;;;24.60;99.90;;;;;;5046985;28;20195;-80
2023/06/11 07:42:43;;;;;;;0.10;0.10;;;25.00;99.90;;;;;;5046409;28;20315;-81
2023/06/11 07:45:09;;;;;;;0.10;0.10;;;25.10;99.90;;;;;;5046514;28;20721;-81
2023/06/11 07:47:35;;;;;;;0.10;0.10;;;24.90;99.90;;;;;;5047874;28;20201;-81
2023/06/11 07:50:01;;;;;;;0.10;0.10;;;25.00;99.90;;;;;;5047094;28;20174;-81
2023/06/11 07:52:27;;;;;;;0.43;0.43;;;25.50;99.90;;;;;;5053629;28;20197;-81
2023/06/11 07:54:52;;;;;;;0.10;0.10;;;25.30;99.90;;;;;;5046524;28;20185;-81
2023/06/11 07:57:18;;;;;;;0.10;0.10;;;25.60;99.90;;;;;;5047258;28;20756;-81
2023/06/11 07:59:43;;;;;;;0.10;0.10;;;25.80;99.90;;;;;;5047717;28;20306;-81
2023/06/11 08:02:10;;;;;;;0.10;0.10;;;25.20;99.90;;;;;;5046293;28;20178;-81
2023/06/11 08:04:36;;;;;;;0.10;0.10;;;25.20;99.90;;;;;;5047403;28;20193;-81
2023/06/11 08:07:03;;;;;;;0.10;0.10;;;25.60;99.90;;;;;;5046338;28;20201;-81
2023/06/11 08:09:29;;;;;;;0.10;0.10;;;25.70;99.90;;;;;;5045541;28;20194;-81
2023/06/11 08:11:55;;;;;;;0.10;0.10;;;25.50;99.90;;;;;;5046349;28;20606;-81
2023/06/11 08:14:21;;;;;;;0.10;0.10;;;26.10;99.90;;;;;;5048739;28;20319;-81
2023/06/11 08:16:46;;;;;;;0.10;0.10;;;25.90;99.90;;;;;;5047941;28;20209;-81
2023/06/11 08:19:13;;;;;;;0.10;0.10;;;26.30;99.90;;;;;;5047018;28;20698;-81
2023/06/11 08:21:38;;;;;;;0.10;0.10;;;26.10;99.90;;;;;;5047594;28;20217;-81
2023/06/11 08:24:05;;;;;;;0.10;0.10;;;26.50;99.90;;;;;;5047400;28;20306;-81
2023/06/11 08:26:30;;;;;;;0.10;0.10;;;26.50;99.90;;;;;;5048527;28;20301;-81
2023/06/11 08:28:56;;;;;;;0.10;0.10;;;26.40;99.90;;;;;;5048368;28;20186;-81
2023/06/11 08:31:21;;;;;;;0.10;0.10;;;26.20;99.90;;;;;;5046954;28;20189;-81
2023/06/11 08:33:47;;;;;;;0.10;0.10;;;26.00;99.90;;;;;;5048135;28;20197;-81
2023/06/11 08:36:13;;;;;;;0.10;0.10;;;25.90;99.90;;;;;;5047975;28;20190;-81
2023/06/11 08:38:38;;;;;;;0.10;0.10;;;25.90;99.90;;;;;;5046357;28;20205;-81
2023/06/11 08:41:04;;;;;;;0.10;0.10;;;25.90;99.90;;;;;;5047178;28;20201;-81
2023/06/11 08:43:29;;;;;;;0.10;0.10;;;26.30;99.90;;;;;;5045633;28;20598;-81
2023/06/11 08:45:55;;;;;;;0.10;0.10;;;26.80;99.90;;;;;;5045639;28;20182;-81
2023/06/11 08:48:21;;;;;;;0.10;0.10;;;26.90;99.90;;;;;;5047429;28;20220;-81
2023/06/11 08:50:50;;;;;;;0.10;0.10;;;26.90;99.90;;;;;;5052797;28;20193;-81
2023/06/11 08:53:16;;;;;;;0.10;0.10;;;26.90;99.90;;;;;;5045640;28;20741;-81
2023/06/11 08:55:42;;;;;;;0.10;0.10;;;27.20;99.90;;;;;;5045381;28;20301;-81
2023/06/11 08:58:12;;;;;;;0.10;0.10;;;26.60;99.90;;;;;;5046899;28;20288;-81
2023/06/11 09:00:38;;;;;;;0.10;0.10;;;26.60;99.90;;;;;;5046140;28;20194;-81
2023/06/11 09:03:04;;;;;;;0.10;0.10;;;26.70;99.90;;;;;;5045111;28;20182;-81
2023/06/11 09:05:31;;;;;;;0.10;0.10;;;27.20;99.90;;;;;;5044621;28;20205;-81
2023/06/11 09:07:57;;;;;;;0.10;0.10;;;27.00;99.90;;;;;;5044704;28;20224;-81
2023/06/11 09:10:23;;;;;;;0.10;0.10;;;27.00;99.90;;;;;;5044856;28;20222;-81
2023/06/11 09:12:48;;;;;;;0.10;0.10;;;27.40;99.90;;;;;;5044582;28;20220;-81
2023/06/11 09:15:15;;;;;;;0.10;0.10;;;27.90;99.90;;;;;;5044241;28;20546;-81
2023/06/11 09:17:42;;;;;;;0.10;0.10;;;27.60;99.90;;;;;;5045941;28;20296;-81
2023/06/11 09:20:14;;;;;;;0.10;0.10;;;26.90;99.90;;;;;;5044899;28;20221;-81
2023/06/11 09:22:41;;;;;;;0.10;0.10;;;27.40;99.90;;;;;;5043977;28;20182;-81
2023/06/11 09:25:09;;;;;;;0.10;0.10;;;27.30;99.90;;;;;;5045891;28;20186;-81
2023/06/11 09:27:36;;;;;;;0.10;0.10;;;26.90;99.90;;;;;;5044158;28;20233;-81
2023/06/11 09:30:20;;;;;;;0.10;0.10;;;27.50;99.90;;;;;;5044277;28;20643;-81
2023/06/11 09:32:47;;;;;;;0.10;0.10;;;27.40;99.90;;;;;;5044264;28;20192;-81
2023/06/11 09:35:14;;;;;;;0.10;0.10;;;27.10;99.90;;;;;;5044294;28;20717;-81
2023/06/11 09:37:45;;;;;;;0.10;0.10;;;27.40;99.90;;;;;;5044325;28;20240;-81
2023/06/11 09:40:14;;;;;;;0.10;0.10;;;27.80;99.90;;;;;;5044057;28;20177;-81
2023/06/11 09:42:43;;;;;;;0.10;0.10;;;28.30;99.90;;;;;;5044057;28;20262;-81
2023/06/11 09:45:19;;;;;;;0.10;0.10;;;28.70;99.90;;;;;;5044990;28;20197;-81
2023/06/11 09:47:45;;;;;;;0.10;0.10;;;29.10;99.90;;;;;;5043691;28;20245;-81
2023/06/11 09:50:13;;;;;;;0.10;0.10;;;28.90;99.90;;;;;;5044216;28;20178;-82
2023/06/11 09:52:40;;;;;;;0.10;0.10;;;28.80;99.90;;;;;;5043835;28;20593;-81
2023/06/11 09:55:10;;;;;;;0.63;0.63;;;28.80;99.90;;;;;;5045474;28;20207;-81
2023/06/11 09:57:38;;;;;;;0.20;0.20;;;29.00;99.90;;;;;;5043934;28;20205;-81
2023/06/11 10:00:09;;;;;;;0.10;0.10;;;28.30;99.90;;;;;;5043439;28;20181;-81
2023/06/11 10:02:36;;;;;;;0.10;0.10;;;28.70;99.90;;;;;;5043965;28;20217;-81
2023/06/11 10:05:02;;;;;;;0.10;0.10;;;28.50;99.90;;;;;;5044525;28;20720;-81
2023/06/11 10:07:30;;;;;;;0.10;0.10;;;27.90;99.90;;;;;;5043957;28;20279;-81
2023/06/11 10:09:56;;;;;;;0.10;0.10;;;28.70;99.90;;;;;;5044548;28;20265;-81
2023/06/11 10:12:22;;;;;;;0.10;0.10;;;28.50;99.90;;;;;;5043757;28;20189;-81
2023/06/11 10:14:55;;;;;;;0.10;0.10;;;28.40;99.90;;;;;;5044173;28;20550;-81
2023/06/11 10:17:22;;;;;;;0.10;0.10;;;28.50;99.90;;;;;;5045406;28;20616;-81
2023/06/11 10:19:49;;;;;;;0.10;0.10;;;28.60;99.90;;;;;;5044615;28;20599;-81
2023/06/11 10:22:35;;;;;;;0.10;0.10;;;28.60;99.90;;;;;;5045393;28;20738;-82
2023/06/11 10:25:03;;;;;;;0.10;0.10;;;28.20;99.90;;;;;;5043965;28;20181;-81
2023/06/11 10:27:36;;;;;;;0.10;0.10;;;28.70;99.90;;;;;;5045478;28;20577;-81
2023/06/11 10:30:02;;;;;;;0.10;0.10;;;28.90;99.90;;;;;;5045311;28;20189;-81
2023/06/11 10:32:28;;;;;;;0.68;0.68;;;29.40;99.90;;;;;;5042995;28;20697;-81
2023/06/11 10:34:57;;;;;;;0.10;0.10;;;29.70;99.90;;;;;;5052820;28;20181;-81
2023/06/11 10:37:42;;;;;;;0.10;0.10;;;30.00;99.90;;;;;;5043527;28;20201;-81
2023/06/11 10:40:08;;;;;;;0.10;0.10;;;30.00;99.90;;;;;;5043588;28;20194;-81
2023/06/11 10:42:35;;;;;;;0.10;0.10;;;29.80;99.90;;;;;;5044946;28;20243;-81
2023/06/11 10:45:12;;;;;;;0.10;0.10;;;29.80;99.90;;;;;;5043839;28;20205;-81
2023/06/11 10:47:45;;;;;;;0.10;0.10;;;29.50;99.90;;;;;;5043587;28;20855;-81
2023/06/11 10:50:12;;;;;;;0.10;0.10;;;28.90;99.90;;;;;;5043933;28;20255;-81
2023/06/11 10:52:51;;;;;;;0.10;0.10;;;29.30;99.90;;;;;;5043132;28;20186;-81
2023/06/11 10:55:18;;;;;;;0.10;0.10;;;29.50;99.90;;;;;;5044596;28;20189;-82
2023/06/11 10:57:44;;;;;;;0.10;0.10;;;29.40;99.90;;;;;;5042763;28;20251;-81
2023/06/11 11:00:10;;;;;;;0.10;0.10;;;29.80;99.90;;;;;;5045516;28;20169;-81
2023/06/11 11:02:37;;;;;;;0.10;0.10;;;29.60;99.90;;;;;;5043816;28;20218;-81
2023/06/11 11:05:07;;;;;;;0.10;0.10;;;29.30;99.90;;;;;;5044189;28;20261;-81
2023/06/11 11:07:34;;;;;;;0.10;0.10;;;29.10;99.90;;;;;;5045031;28;20255;-81
2023/06/11 11:10:00;;;;;;;0.10;0.10;;;28.90;99.90;;;;;;5044143;28;20236;-80
2023/06/11 11:12:26;;;;;;;0.10;0.10;;;28.50;99.90;;;;;;5043749;28;20200;-81
2023/06/11 11:14:52;;;;;;;0.10;0.10;;;28.10;99.90;;;;;;5044191;28;20185;-81
2023/06/11 11:17:18;;;;;;;0.10;0.10;;;28.00;99.90;;;;;;5043189;28;20208;-81
2023/06/11 11:19:44;;;;;;;0.20;0.20;;;28.40;99.90;;;;;;5045385;28;20265;-81
2023/06/11 11:22:12;;;;;;;0.10;0.10;;;28.30;99.90;;;;;;5044224;28;20622;-81
2023/06/11 11:24:38;;;;;;;0.10;0.10;;;28.80;99.90;;;;;;5046186;28;20205;-81
2023/06/11 11:27:06;;;;;;;0.10;0.10;;;29.10;99.90;;;;;;5048836;28;20232;-81
2023/06/11 11:29:32;;;;;;;0.10;0.10;;;29.70;99.90;;;;;;5048108;28;20185;-81
2023/06/11 11:31:58;;;;;;;0.10;0.10;;;29.70;99.90;;;;;;5047585;28;20535;-81
2023/06/11 11:34:26;;;;;;;0.10;0.10;;;30.10;99.90;;;;;;5046921;28;20190;-81
2023/06/11 11:36:54;;;;;;;0.10;0.10;;;29.60;99.90;;;;;;5049984;28;20205;-81
2023/06/11 11:39:20;;;;;;;0.10;0.10;;;29.30;99.90;;;;;;5047609;28;20301;-81
2023/06/11 11:41:53;;;;;;;0.10;0.10;;;29.80;99.90;;;;;;5047078;28;20300;-81
2023/06/11 11:44:19;;;;;;;0.10;0.10;;;29.70;99.90;;;;;;5049697;28;20181;-81
2023/06/11 11:46:45;;;;;;;0.20;0.20;;;29.20;99.90;;;;;;5048416;28;20197;-81
2023/06/11 11:49:12;;;;;;;0.10;0.10;;;28.80;99.90;;;;;;5047505;28;20235;-81
2023/06/11 11:51:40;;;;;;;0.10;0.10;;;28.90;99.90;;;;;;5048923;28;20709;-81
2023/06/11 11:54:07;;;;;;;0.10;0.10;;;29.20;99.90;;;;;;5048924;28;20883;-82
2023/06/11 11:56:33;;;;;;;0.10;0.10;;;29.30;99.90;;;;;;5048680;28;20182;-80
2023/06/11 11:58:59;;;;;;;0.20;0.20;;;28.80;99.90;;;;;;5047453;28;20209;-81
2023/06/11 12:01:30;;;;;;;0.10;0.10;;;28.20;99.90;;;;;;5048541;28;20682;-81
2023/06/11 12:04:05;;;;;;;0.10;0.10;;;28.90;99.90;;;;;;5047994;28;20209;-81
2023/06/11 12:06:31;;;;;;;0.10;0.10;;;29.70;99.90;;;;;;5058005;28;20193;-81
2023/06/11 12:08:56;;;;;;;0.10;0.10;;;29.90;99.90;;;;;;5049205;28;20189;-81
2023/06/11 12:11:22;;;;;;;12.27;11.48;;;29.50;99.90;;;;;;5048524;28;20196;-81
2023/06/11 12:13:48;;;;;;;0.10;0.10;;;29.30;99.90;;;;;;5048516;28;20185;-81
2023/06/11 12:16:14;;;;;;;0.55;0.40;;;29.10;99.90;;;;;;5047897;28;20181;-82
2023/06/11 12:18:40;;;;;;;0.10;0.10;;;29.40;99.90;;;;;;5047960;28;20202;-81
2023/06/11 12:21:07;;;;;;;0.10;0.10;;;29.80;99.90;;;;;;5046997;28;21117;-81
2023/06/11 12:23:33;;;;;;;0.43;0.43;;;29.20;99.90;;;;;;5047737;28;20217;-81
2023/06/11 12:26:00;;;;;;;0.10;0.10;;;29.30;99.90;;;;;;5047557;28;20778;-81
2023/06/11 12:28:25;;;;;;;0.73;0.73;;;29.90;99.90;;;;;;5047224;28;20259;-81
2023/06/11 12:30:51;;;;;;;0.10;0.10;;;29.40;99.90;;;;;;5047332;28;20276;-81
2023/06/11 12:33:17;;;;;;;0.10;0.10;;;29.70;99.90;;;;;;5048861;28;20192;-81
2023/06/11 12:35:43;;;;;;;0.10;0.10;;;29.90;99.90;;;;;;5048201;28;20201;-81
2023/06/11 12:38:08;;;;;;;0.10;0.10;;;30.10;99.90;;;;;;5046703;28;20663;-81
2023/06/11 12:40:34;;;;;;;0.10;0.10;;;30.30;99.90;;;;;;5048735;28;20205;-81
2023/06/11 12:43:00;;;;;;;0.10;0.10;;;30.60;99.90;;;;;;5046214;28;20181;-81
2023/06/11 12:45:27;;;;;;;0.10;0.10;;;30.80;99.90;;;;;;5048224;28;20174;-81
2023/06/11 12:47:52;;;;;;;0.10;0.10;;;30.30;99.90;;;;;;5045773;28;20208;-81